Time;durP1;ratioP1;P1;durP2;ratioP2;P2;SDS_P1;SDS_P2;PMS_P1;PMS_P2;Temp;Humidity;BMP_temperature;BMP_pressure;BME280_temperature;BME280_humidity;BME280_pressure;Samples;Min_cycle;Max_cycle;Signal;HPM_P1;HPM_P2
2022/10/07 00:00:57;;;;;;;8.63;8.43;;;8.10;99.90;;;;;;5080918;28;20258;-81
2022/10/07 00:03:35;;;;;;;9.10;8.80;;;8.10;99.90;;;;;;5082482;28;20313;-83
2022/10/07 00:06:06;;;;;;;8.70;8.50;;;8.10;99.90;;;;;;5081938;28;20304;-83
2022/10/07 00:08:36;;;;;;;8.80;8.60;;;8.10;99.90;;;;;;5094694;28;20237;-83
2022/10/07 00:11:13;;;;;;;8.40;8.20;;;8.10;99.90;;;;;;5101807;28;20221;-82
2022/10/07 00:13:43;;;;;;;8.77;8.57;;;8.00;99.90;;;;;;5101964;28;20248;-82
2022/10/07 00:16:14;;;;;;;8.70;8.50;;;8.00;99.90;;;;;;5101017;28;20252;-83
2022/10/07 00:21:27;;;;;;;8.53;8.33;;;8.00;99.90;;;;;;5100001;28;20224;-83
2022/10/07 00:23:57;;;;;;;8.60;8.40;;;7.90;99.90;;;;;;5100608;28;20257;-83
2022/10/07 00:26:27;;;;;;;8.23;8.03;;;7.90;99.90;;;;;;5100669;28;20233;-83
2022/10/07 00:28:56;;;;;;;8.20;8.00;;;7.90;99.90;;;;;;5101144;28;20234;-82
2022/10/07 00:31:26;;;;;;;8.20;8.00;;;7.90;99.90;;;;;;5100579;28;20222;-82
2022/10/07 00:33:58;;;;;;;7.87;7.67;;;7.90;99.90;;;;;;5100647;28;20268;-83
2022/10/07 00:36:33;;;;;;;8.00;7.80;;;7.90;99.90;;;;;;5100342;28;20229;-83
2022/10/07 00:39:04;;;;;;;8.17;7.97;;;7.90;99.90;;;;;;5100900;28;20271;-82
2022/10/07 00:41:35;;;;;;;8.30;8.10;;;7.90;99.90;;;;;;5100580;28;20237;-82
2022/10/07 00:44:38;;;;;;;8.00;7.80;;;7.90;99.90;;;;;;5099906;28;20655;-83
2022/10/07 00:47:23;;;;;;;8.20;8.00;;;7.90;99.90;;;;;;5100806;28;20236;-82
2022/10/07 00:50:14;;;;;;;8.13;7.93;;;7.90;99.90;;;;;;5102497;28;20257;-83
2022/10/07 00:52:52;;;;;;;8.40;8.20;;;7.90;99.90;;;;;;5101783;28;20242;-83
2022/10/07 00:55:29;;;;;;;8.70;8.50;;;7.90;99.90;;;;;;5099777;28;20283;-82
2022/10/07 00:58:08;;;;;;;8.20;8.00;;;7.90;99.90;;;;;;5101524;28;20225;-82
2022/10/07 01:00:37;;;;;;;8.10;7.90;;;7.90;99.90;;;;;;5089669;28;20240;-82
2022/10/07 01:03:06;;;;;;;8.43;8.23;;;7.90;99.90;;;;;;5094625;28;20233;-82
2022/10/07 01:05:45;;;;;;;8.40;8.20;;;7.80;99.90;;;;;;5083117;28;20226;-83
2022/10/07 01:08:14;;;;;;;8.40;8.20;;;7.80;99.90;;;;;;5083684;28;20260;-82
2022/10/07 01:10:52;;;;;;;8.53;8.33;;;7.80;99.90;;;;;;5083752;28;20257;-83
2022/10/07 01:13:31;;;;;;;8.40;8.20;;;7.70;99.90;;;;;;5083613;28;20206;-82
2022/10/07 01:16:09;;;;;;;8.37;8.17;;;7.80;99.90;;;;;;5082915;28;20237;-83
2022/10/07 01:18:48;;;;;;;8.63;8.43;;;7.70;99.90;;;;;;5083311;28;20241;-82
2022/10/07 01:21:34;;;;;;;8.40;8.20;;;7.70;99.90;;;;;;5106040;28;20229;-81
2022/10/07 01:24:21;;;;;;;8.40;8.20;;;7.70;99.90;;;;;;5111783;28;20245;-83
2022/10/07 01:27:00;;;;;;;8.50;8.30;;;7.70;99.90;;;;;;5105703;28;20751;-83
2022/10/07 01:29:39;;;;;;;8.30;8.10;;;7.70;99.90;;;;;;5105334;28;20265;-82
2022/10/07 01:32:16;;;;;;;8.60;8.40;;;7.70;99.90;;;;;;5103327;28;20249;-83
2022/10/07 01:34:46;;;;;;;8.70;8.50;;;7.70;99.90;;;;;;5102523;28;20241;-82
2022/10/07 01:37:16;;;;;;;8.77;8.57;;;7.70;99.90;;;;;;5103101;28;20316;-83
2022/10/07 01:39:53;;;;;;;8.87;8.67;;;7.70;99.90;;;;;;5103787;28;20260;-82
2022/10/07 01:42:32;;;;;;;9.10;8.80;;;7.70;99.90;;;;;;5107913;28;20238;-81
2022/10/07 01:45:01;;;;;;;9.00;8.70;;;7.70;99.90;;;;;;5113034;28;20305;-81
2022/10/07 01:47:29;;;;;;;9.10;8.80;;;7.70;99.90;;;;;;5111956;28;20221;-83
2022/10/07 01:49:59;;;;;;;9.10;8.80;;;7.70;99.90;;;;;;5105889;28;20307;-83
2022/10/07 01:52:48;;;;;;;9.10;8.80;;;7.80;99.90;;;;;;5105114;28;20255;-82
2022/10/07 01:55:52;;;;;;;8.70;8.50;;;7.70;99.90;;;;;;5104192;28;20231;-81
2022/10/07 01:58:38;;;;;;;9.07;8.77;;;7.80;99.90;;;;;;5104039;28;20248;-83
2022/10/07 02:01:18;;;;;;;8.70;8.50;;;7.70;99.90;;;;;;5104348;28;20312;-82
2022/10/07 02:04:13;;;;;;;8.63;8.43;;;7.70;99.90;;;;;;5103697;28;20239;-83
2022/10/07 02:06:50;;;;;;;8.70;8.50;;;7.80;99.90;;;;;;5093319;28;20233;-82
2022/10/07 02:09:28;;;;;;;8.80;8.60;;;7.80;99.90;;;;;;5102233;28;20229;-83
2022/10/07 02:12:06;;;;;;;8.60;8.40;;;7.80;99.90;;;;;;5103361;28;20261;-82
2022/10/07 02:14:47;;;;;;;8.70;8.50;;;7.80;99.90;;;;;;5102240;28;20225;-83
2022/10/07 02:17:22;;;;;;;8.70;8.50;;;7.80;99.90;;;;;;5102480;28;20260;-82
2022/10/07 02:19:55;;;;;;;9.10;8.80;;;7.80;99.90;;;;;;5102161;28;20319;-81
2022/10/07 02:22:31;;;;;;;8.70;8.50;;;7.80;99.90;;;;;;5102226;28;20235;-82
2022/10/07 02:25:00;;;;;;;8.70;8.50;;;7.80;99.90;;;;;;5101439;28;20332;-81
2022/10/07 02:27:38;;;;;;;8.40;8.20;;;7.70;99.90;;;;;;5101964;28;20241;-83
2022/10/07 02:30:17;;;;;;;8.30;8.10;;;7.80;99.90;;;;;;5102419;28;20302;-82
2022/10/07 02:32:55;;;;;;;8.57;8.37;;;7.80;99.90;;;;;;5105561;28;20240;-83
2022/10/07 02:35:34;;;;;;;8.60;8.40;;;7.80;99.90;;;;;;5120033;27;20243;-81
2022/10/07 02:38:11;;;;;;;8.43;8.23;;;7.80;99.90;;;;;;5114128;27;20252;-82
2022/10/07 02:40:50;;;;;;;8.40;8.20;;;7.70;99.90;;;;;;5103510;28;20294;-82
2022/10/07 02:43:29;;;;;;;8.33;8.13;;;7.80;99.90;;;;;;5103823;28;20229;-83
2022/10/07 02:46:06;;;;;;;8.40;8.20;;;7.80;99.90;;;;;;5102650;28;20327;-82
2022/10/07 02:48:45;;;;;;;8.63;8.43;;;7.80;99.90;;;;;;5101090;28;20279;-83
2022/10/07 02:51:25;;;;;;;8.60;8.40;;;7.80;99.90;;;;;;5101326;28;20226;-82
2022/10/07 02:53:55;;;;;;;8.30;8.10;;;7.70;99.90;;;;;;5101241;28;20244;-83
2022/10/07 02:56:26;;;;;;;8.50;8.30;;;7.70;99.90;;;;;;5100554;28;20229;-83
2022/10/07 02:58:54;;;;;;;8.33;8.13;;;7.70;99.90;;;;;;5100447;28;20221;-82
2022/10/07 03:01:31;;;;;;;8.50;8.30;;;7.70;99.90;;;;;;5100181;28;20281;-82
2022/10/07 03:04:00;;;;;;;8.30;8.10;;;7.80;99.90;;;;;;5100524;28;20308;-82
2022/10/07 03:06:29;;;;;;;8.27;8.07;;;7.80;99.90;;;;;;5100614;28;20233;-82
2022/10/07 03:09:00;;;;;;;8.40;8.20;;;7.80;99.90;;;;;;5100176;28;20232;-82
2022/10/07 03:11:29;;;;;;;8.27;8.07;;;7.90;99.90;;;;;;5094955;28;20253;-82
2022/10/07 03:13:58;;;;;;;8.20;8.00;;;7.90;99.90;;;;;;5092534;28;20241;-83
2022/10/07 03:16:39;;;;;;;8.20;8.00;;;8.00;99.90;;;;;;5100157;28;20234;-83
2022/10/07 03:19:06;;;;;;;8.23;8.03;;;7.90;99.90;;;;;;5101239;28;20260;-82
2022/10/07 03:21:35;;;;;;;8.40;8.20;;;8.00;99.90;;;;;;5100323;28;20218;-82
2022/10/07 03:24:04;;;;;;;8.20;8.00;;;7.90;99.90;;;;;;5101095;28;20257;-82
2022/10/07 03:26:34;;;;;;;8.07;7.87;;;7.90;99.90;;;;;;5100755;28;20239;-82
2022/10/07 03:29:04;;;;;;;8.40;8.20;;;7.90;99.90;;;;;;5101394;28;20222;-82
2022/10/07 03:31:43;;;;;;;8.13;7.93;;;8.00;99.90;;;;;;5093291;28;20244;-82
2022/10/07 03:34:11;;;;;;;8.07;7.87;;;8.00;99.90;;;;;;5101943;28;20279;-83
2022/10/07 03:36:41;;;;;;;7.83;7.63;;;8.00;99.90;;;;;;5101521;28;20287;-82
2022/10/07 03:39:10;;;;;;;7.93;7.73;;;8.00;99.90;;;;;;5101244;28;20248;-82
2022/10/07 03:41:40;;;;;;;7.83;7.63;;;8.00;99.90;;;;;;5102900;28;20224;-83
2022/10/07 03:44:08;;;;;;;7.80;7.60;;;8.00;99.90;;;;;;5103032;28;20346;-83
2022/10/07 03:46:41;;;;;;;8.20;8.00;;;7.90;99.90;;;;;;5102421;28;20309;-82
2022/10/07 03:49:11;;;;;;;8.20;8.00;;;7.90;99.90;;;;;;5103114;28;20230;-83
2022/10/07 03:51:38;;;;;;;7.80;7.60;;;7.90;99.90;;;;;;5101461;28;20224;-83
2022/10/07 03:54:06;;;;;;;7.90;7.70;;;8.00;99.90;;;;;;5091813;28;20230;-83
2022/10/07 03:56:35;;;;;;;7.77;7.57;;;8.00;99.90;;;;;;5089750;28;20321;-82
2022/10/07 03:59:05;;;;;;;8.13;7.93;;;8.00;99.90;;;;;;5098607;28;20252;-83
2022/10/07 04:01:36;;;;;;;8.20;8.00;;;8.00;99.90;;;;;;5101120;28;20232;-83
2022/10/07 04:04:07;;;;;;;7.80;7.60;;;8.00;99.90;;;;;;5102144;28;20217;-82
2022/10/07 04:06:36;;;;;;;7.97;7.77;;;8.00;99.90;;;;;;5104404;28;20237;-82
2022/10/07 04:09:04;;;;;;;7.90;7.70;;;8.00;99.90;;;;;;5112080;28;20232;-82
2022/10/07 04:11:32;;;;;;;7.90;7.70;;;8.00;99.90;;;;;;5107289;28;20221;-82
2022/10/07 04:14:01;;;;;;;7.70;7.50;;;8.00;99.90;;;;;;5104988;28;20230;-82
2022/10/07 04:16:32;;;;;;;8.03;7.83;;;8.00;99.90;;;;;;5102827;28;20233;-82
2022/10/07 04:19:00;;;;;;;8.20;8.00;;;8.10;99.90;;;;;;5102280;28;20260;-82
2022/10/07 04:21:40;;;;;;;8.20;8.00;;;8.10;99.90;;;;;;5102604;28;20225;-82
2022/10/07 04:24:09;;;;;;;8.03;7.83;;;8.10;99.90;;;;;;5102917;28;20229;-82
2022/10/07 04:26:38;;;;;;;8.10;7.90;;;8.10;99.90;;;;;;5101949;28;20245;-82
2022/10/07 04:29:07;;;;;;;8.10;7.90;;;8.10;99.90;;;;;;5101623;28;20292;-82
2022/10/07 04:31:36;;;;;;;7.80;7.60;;;8.00;99.90;;;;;;5102509;28;20225;-82
2022/10/07 04:34:07;;;;;;;8.17;7.97;;;8.00;99.90;;;;;;5104026;28;20233;-81
2022/10/07 04:36:38;;;;;;;8.20;8.00;;;8.00;99.90;;;;;;5105492;28;20236;-82
2022/10/07 04:39:05;;;;;;;7.80;7.60;;;8.00;99.90;;;;;;5105305;28;20234;-82
2022/10/07 04:41:35;;;;;;;8.10;7.90;;;8.00;99.90;;;;;;5105089;28;20283;-82
2022/10/07 04:44:02;;;;;;;7.67;7.47;;;8.10;99.90;;;;;;5105122;28;20379;-82
2022/10/07 04:46:35;;;;;;;7.60;7.40;;;8.10;99.90;;;;;;5103672;28;20248;-83
2022/10/07 04:49:03;;;;;;;7.77;7.57;;;8.20;99.90;;;;;;5104262;28;20233;-83
2022/10/07 04:51:34;;;;;;;8.00;7.80;;;8.20;99.90;;;;;;5104294;28;20221;-82
2022/10/07 04:54:13;;;;;;;7.70;7.50;;;8.20;99.90;;;;;;5104946;28;20229;-83
2022/10/07 04:56:42;;;;;;;7.80;7.60;;;8.20;99.90;;;;;;5104992;28;20289;-82
2022/10/07 04:59:11;;;;;;;8.07;7.87;;;8.20;99.90;;;;;;5103968;28;20245;-83
2022/10/07 05:01:41;;;;;;;8.10;7.90;;;8.20;99.90;;;;;;5104726;28;20742;-83
2022/10/07 05:04:11;;;;;;;7.93;7.73;;;8.20;99.90;;;;;;5104728;28;20261;-83
2022/10/07 05:06:40;;;;;;;7.80;7.60;;;8.20;99.90;;;;;;5103976;28;20245;-82
2022/10/07 05:09:11;;;;;;;8.00;7.80;;;8.30;99.90;;;;;;5124576;22;20233;-81
2022/10/07 05:11:38;;;;;;;8.53;8.33;;;8.30;99.90;;;;;;5124382;28;20266;-83
2022/10/07 05:14:08;;;;;;;8.83;8.63;;;8.30;99.90;;;;;;5125735;28;20228;-83
2022/10/07 05:16:38;;;;;;;8.70;8.50;;;8.40;99.90;;;;;;5122004;27;20327;-83
2022/10/07 05:19:09;;;;;;;8.83;8.63;;;8.40;99.90;;;;;;5109297;28;20264;-83
2022/10/07 05:21:36;;;;;;;9.17;8.87;;;8.40;99.90;;;;;;5114977;28;21009;-83
2022/10/07 05:24:05;;;;;;;9.13;8.83;;;8.40;99.90;;;;;;5125289;28;20316;-84
2022/10/07 05:26:46;;;;;;;9.40;9.10;;;8.30;99.90;;;;;;5123534;28;20237;-83
2022/10/07 05:29:14;;;;;;;9.40;9.10;;;8.30;99.90;;;;;;5119888;28;20225;-82
2022/10/07 05:31:43;;;;;;;9.00;8.70;;;8.30;99.90;;;;;;5116677;28;20220;-82
2022/10/07 05:34:13;;;;;;;8.80;8.60;;;8.30;99.90;;;;;;5113864;28;20229;-81
2022/10/07 05:36:41;;;;;;;8.60;8.40;;;8.30;99.90;;;;;;5121939;28;20236;-81
2022/10/07 05:39:11;;;;;;;8.80;8.60;;;8.40;99.90;;;;;;5122589;28;20293;-81
2022/10/07 05:41:43;;;;;;;8.80;8.60;;;8.40;99.90;;;;;;5116324;28;20274;-83
2022/10/07 05:44:11;;;;;;;8.90;8.70;;;8.40;99.90;;;;;;5123703;28;20231;-81
2022/10/07 05:46:40;;;;;;;8.67;8.47;;;8.40;99.90;;;;;;5122559;28;20232;-81
2022/10/07 05:49:08;;;;;;;8.83;8.63;;;8.50;99.90;;;;;;5122707;28;20586;-81
2022/10/07 05:51:38;;;;;;;9.10;8.80;;;8.50;99.90;;;;;;5122344;28;20228;-81
2022/10/07 05:54:08;;;;;;;8.83;8.63;;;8.50;99.90;;;;;;5122640;28;20232;-80
2022/10/07 05:56:37;;;;;;;9.00;8.80;;;8.60;99.90;;;;;;5112407;28;20263;-81
2022/10/07 05:59:09;;;;;;;8.73;8.53;;;8.70;99.90;;;;;;5103316;28;20238;-82
2022/10/07 06:01:37;;;;;;;8.53;8.33;;;8.70;99.90;;;;;;5123378;28;20251;-81
2022/10/07 06:04:06;;;;;;;8.60;8.40;;;8.70;99.90;;;;;;5122379;28;20233;-81
2022/10/07 06:06:35;;;;;;;8.57;8.37;;;8.70;99.90;;;;;;5115962;28;20244;-81
2022/10/07 06:14:32;;;;;;;8.67;8.47;;;8.90;99.90;;;;;;5117906;28;20308;-81
2022/10/07 06:17:00;;;;;;;8.80;8.60;;;9.00;99.90;;;;;;5101849;28;20229;-81
2022/10/07 06:19:28;;;;;;;8.80;8.60;;;9.00;99.90;;;;;;5101388;28;20244;-81
2022/10/07 06:21:58;;;;;;;8.77;8.57;;;9.10;99.90;;;;;;5101574;28;20303;-81
2022/10/07 06:24:27;;;;;;;9.00;8.80;;;9.10;99.90;;;;;;5101914;28;20260;-82
2022/10/07 06:26:58;;;;;;;9.30;9.00;;;9.10;99.90;;;;;;5101168;28;20237;-81
2022/10/07 06:29:27;;;;;;;9.10;8.80;;;9.20;99.90;;;;;;5101256;28;20225;-80
2022/10/07 06:31:57;;;;;;;8.90;8.70;;;9.30;99.90;;;;;;5101823;28;20233;-83
2022/10/07 06:34:24;;;;;;;9.30;9.00;;;9.30;99.90;;;;;;5108340;28;20236;-80
2022/10/07 06:36:54;;;;;;;9.20;8.90;;;9.30;99.90;;;;;;5107336;28;20240;-81
2022/10/07 06:39:23;;;;;;;9.30;9.00;;;9.30;99.90;;;;;;5114272;28;20301;-82
2022/10/07 06:41:56;;;;;;;9.27;8.97;;;9.40;99.90;;;;;;5122357;28;20247;-82
2022/10/07 06:44:23;;;;;;;9.20;8.90;;;9.50;99.90;;;;;;5121903;28;20232;-82
2022/10/07 06:46:52;;;;;;;9.50;9.20;;;9.50;99.90;;;;;;5118999;28;20247;-81
2022/10/07 06:49:26;;;;;;;9.30;9.00;;;9.60;99.90;;;;;;5101604;28;20229;-82
2022/10/07 06:51:53;;;;;;;9.10;8.80;;;9.60;99.90;;;;;;5103186;28;20224;-82
2022/10/07 06:54:23;;;;;;;9.13;8.83;;;9.60;99.90;;;;;;5100710;28;20226;-81
2022/10/07 06:56:51;;;;;;;9.20;8.90;;;9.70;99.90;;;;;;5100345;28;20241;-83
2022/10/07 06:59:21;;;;;;;9.50;9.20;;;9.70;99.90;;;;;;5109728;28;20295;-82
2022/10/07 07:01:50;;;;;;;9.43;9.13;;;9.70;99.90;;;;;;5117782;28;20213;-82
2022/10/07 07:04:20;;;;;;;9.30;9.00;;;9.80;99.90;;;;;;5121419;28;20231;-82
2022/10/07 07:06:52;;;;;;;8.77;8.57;;;9.80;99.90;;;;;;5114537;28;20327;-83
2022/10/07 07:09:21;;;;;;;8.70;8.50;;;9.90;99.90;;;;;;5111004;28;20275;-82
2022/10/07 07:11:49;;;;;;;8.53;8.33;;;10.00;99.90;;;;;;5105931;28;20237;-81
2022/10/07 07:14:18;;;;;;;8.20;8.00;;;10.10;99.90;;;;;;5111805;28;20221;-82
2022/10/07 07:16:47;;;;;;;8.30;8.10;;;10.20;99.90;;;;;;5111914;28;20232;-79
2022/10/07 07:19:17;;;;;;;8.50;8.30;;;10.20;99.90;;;;;;5102511;28;20240;-82
2022/10/07 07:21:46;;;;;;;8.70;8.50;;;10.20;99.90;;;;;;5120938;28;20312;-81
2022/10/07 07:24:20;;;;;;;8.80;8.60;;;10.20;99.90;;;;;;5111600;28;20264;-82
2022/10/07 07:26:47;;;;;;;8.83;8.63;;;10.30;99.90;;;;;;5108513;28;20233;-80
2022/10/07 07:29:15;;;;;;;8.80;8.60;;;10.40;99.90;;;;;;5100486;28;20237;-82
2022/10/07 07:31:44;;;;;;;8.60;8.40;;;10.40;99.90;;;;;;5100517;28;20226;-81
2022/10/07 07:34:14;;;;;;;8.93;8.70;;;10.40;99.90;;;;;;5100620;28;20229;-81
2022/10/07 07:36:45;;;;;;;9.30;9.00;;;10.40;99.90;;;;;;5099854;28;20259;-81
2022/10/07 07:39:19;;;;;;;9.20;8.90;;;10.50;99.90;;;;;;5102517;28;20233;-82
2022/10/07 07:41:51;;;;;;;9.40;9.10;;;10.40;99.90;;;;;;5109362;28;20226;-82
2022/10/07 07:44:20;;;;;;;9.20;8.90;;;10.40;99.90;;;;;;5114288;28;20257;-81
2022/10/07 07:46:50;;;;;;;9.40;9.10;;;10.40;99.90;;;;;;5119592;28;20288;-81
2022/10/07 07:49:20;;;;;;;9.17;8.87;;;10.40;99.90;;;;;;5130294;28;20292;-81
2022/10/07 07:51:48;;;;;;;9.07;8.77;;;10.50;99.90;;;;;;5113182;28;20224;-82
2022/10/07 07:54:26;;;;;;;9.30;9.00;;;10.50;99.90;;;;;;5129119;27;20226;-83
2022/10/07 07:56:56;;;;;;;9.20;8.90;;;10.50;99.90;;;;;;5123561;28;20232;-82
2022/10/07 07:59:25;;;;;;;9.43;9.13;;;10.60;99.90;;;;;;5110786;28;20257;-82
2022/10/07 08:01:54;;;;;;;8.80;8.60;;;10.70;99.90;;;;;;5097895;28;20295;-82
2022/10/07 08:04:24;;;;;;;8.70;8.50;;;10.70;99.90;;;;;;5100942;28;20225;-83
2022/10/07 08:06:53;;;;;;;8.97;8.77;;;10.70;99.90;;;;;;5102936;28;20241;-81
2022/10/07 08:09:23;;;;;;;8.73;8.53;;;10.80;99.90;;;;;;5103390;28;20232;-82
2022/10/07 08:11:51;;;;;;;9.10;8.80;;;10.90;99.90;;;;;;5103875;28;20229;-80
2022/10/07 08:14:21;;;;;;;9.17;8.87;;;11.00;99.90;;;;;;5103142;28;20233;-81
2022/10/07 08:16:50;;;;;;;8.80;8.60;;;11.00;99.90;;;;;;5103198;28;20225;-79
2022/10/07 08:19:18;;;;;;;8.50;8.30;;;11.10;99.90;;;;;;5102543;28;20245;-80
2022/10/07 08:21:45;;;;;;;8.70;8.50;;;11.20;99.90;;;;;;5102308;28;20248;-79
2022/10/07 08:24:13;;;;;;;8.40;8.20;;;11.30;99.90;;;;;;5100780;28;20697;-80
2022/10/07 08:26:42;;;;;;;8.20;8.00;;;11.40;99.90;;;;;;5102727;28;20332;-80
2022/10/07 08:29:12;;;;;;;8.30;8.10;;;11.50;99.90;;;;;;5102109;28;20245;-77
2022/10/07 08:31:41;;;;;;;8.33;8.13;;;11.60;99.90;;;;;;5101398;28;20226;-78
2022/10/07 08:34:11;;;;;;;8.30;8.10;;;11.60;99.90;;;;;;5108968;28;20221;-80
2022/10/07 08:36:42;;;;;;;9.03;8.77;;;11.70;99.90;;;;;;5123704;28;20313;-79
2022/10/07 08:39:10;;;;;;;9.10;8.80;;;11.80;99.90;;;;;;5111028;28;20251;-79
2022/10/07 08:41:58;;;;;;;8.60;8.40;;;11.80;99.90;;;;;;5117012;28;20228;-79
2022/10/07 08:44:31;;;;;;;8.90;8.70;;;11.80;99.90;;;;;;5112437;28;20289;-78
2022/10/07 08:47:14;;;;;;;8.80;8.60;;;11.80;99.90;;;;;;5103806;28;20306;-79
2022/10/07 08:49:57;;;;;;;8.87;8.67;;;11.80;99.90;;;;;;5103634;28;20235;-79
2022/10/07 08:52:49;;;;;;;9.30;9.00;;;11.80;99.90;;;;;;5102325;28;20229;-79
2022/10/07 08:55:24;;;;;;;9.10;8.80;;;11.70;99.90;;;;;;5099795;28;20304;-77
2022/10/07 08:58:23;;;;;;;8.83;8.63;;;11.80;99.90;;;;;;5103023;28;20232;-80
2022/10/07 09:01:22;;;;;;;8.60;8.40;;;11.80;99.90;;;;;;5104048;28;20750;-79
2022/10/07 09:04:19;;;;;;;8.77;8.57;;;11.90;99.90;;;;;;5122967;27;20213;-80
2022/10/07 09:06:57;;;;;;;8.90;8.67;;;12.00;99.90;;;;;;5123118;27;20237;-78
2022/10/07 09:09:34;;;;;;;8.63;8.43;;;12.10;99.90;;;;;;5122908;27;20286;-79
2022/10/07 09:12:07;;;;;;;8.80;8.60;;;12.20;99.90;;;;;;5123448;27;20229;-79
2022/10/07 09:14:39;;;;;;;8.37;8.17;;;12.30;99.90;;;;;;5122011;27;20198;-80
2022/10/07 09:17:13;;;;;;;8.23;8.03;;;12.30;99.90;;;;;;5123107;27;20244;-82
2022/10/07 09:20:15;;;;;;;8.20;8.00;;;12.40;99.90;;;;;;5121280;28;20240;-81
2022/10/07 09:22:52;;;;;;;8.10;7.90;;;12.30;99.90;;;;;;5136342;27;20246;-79
2022/10/07 09:25:23;;;;;;;8.70;8.50;;;12.40;99.90;;;;;;5142024;27;20224;-80
2022/10/07 09:27:51;;;;;;;8.07;7.87;;;12.50;99.90;;;;;;5142986;27;20238;-80
2022/10/07 09:30:21;;;;;;;8.30;8.10;;;12.60;99.90;;;;;;5143155;27;20228;-79
2022/10/07 09:32:54;;;;;;;9.20;8.90;;;12.70;99.90;;;;;;5138988;28;20293;-81
2022/10/07 09:35:25;;;;;;;8.70;8.50;;;12.80;99.90;;;;;;5135719;28;20224;-81
2022/10/07 09:38:00;;;;;;;9.20;8.90;;;12.90;99.90;;;;;;5136702;27;20256;-80
2022/10/07 09:41:14;;;;;;;8.83;8.63;;;13.00;99.90;;;;;;5136025;28;20255;-82
2022/10/07 09:43:31;;;;;;;8.80;8.60;;;13.10;99.90;;;;;;5127109;28;20301;-79
2022/10/07 09:46:03;;;;;;;9.20;8.90;;;13.20;99.90;;;;;;5126007;28;20223;-82
2022/10/07 09:48:34;;;;;;;9.20;8.90;;;13.30;99.90;;;;;;5127659;28;20231;-80
2022/10/07 09:51:16;;;;;;;8.70;8.50;;;13.40;99.90;;;;;;5127542;28;20315;-78
2022/10/07 09:54:00;;;;;;;8.73;8.53;;;13.50;99.90;;;;;;5125900;28;20233;-81
2022/10/07 09:56:38;;;;;;;8.70;8.50;;;13.70;99.90;;;;;;5123413;28;20220;-80
2022/10/07 09:59:18;;;;;;;9.13;8.83;;;13.90;99.90;;;;;;5123133;28;20233;-78
2022/10/07 10:01:53;;;;;;;9.40;9.10;;;14.10;99.90;;;;;;5125603;28;20288;-80
2022/10/07 10:04:30;;;;;;;9.40;9.10;;;14.20;99.90;;;;;;5127546;28;20242;-81
2022/10/07 10:07:03;;;;;;;8.60;8.40;;;14.40;99.90;;;;;;5125341;28;20240;-82
2022/10/07 10:09:33;;;;;;;8.85;8.65;;;14.50;99.90;;;;;;5128751;28;20247;-82
2022/10/07 10:12:13;;;;;;;8.43;8.23;;;14.60;99.90;;;;;;5130542;28;20235;-81
2022/10/07 10:14:48;;;;;;;9.30;9.00;;;14.70;99.90;;;;;;5128548;28;20296;-82
2022/10/07 10:17:33;;;;;;;8.98;8.77;;;15.00;99.90;;;;;;5125240;28;20277;-82
2022/10/07 10:20:34;;;;;;;8.90;8.70;;;15.20;99.90;;;;;;5119484;28;20259;-80
2022/10/07 10:23:24;;;;;;;9.27;8.98;;;15.40;99.90;;;;;;5115447;28;20216;-78
2022/10/07 10:26:27;;;;;;;9.50;9.20;;;15.50;99.90;;;;;;5119665;28;20293;-79
2022/10/07 10:29:13;;;;;;;8.98;8.75;;;15.60;99.90;;;;;;5117192;28;20225;-80
2022/10/07 10:32:09;;;;;;;8.65;8.45;;;15.70;99.90;;;;;;5128255;27;20205;-80
2022/10/07 10:34:51;;;;;;;8.77;8.57;;;15.80;99.90;;;;;;5117352;27;20225;-80
2022/10/07 10:37:21;;;;;;;9.00;8.80;;;15.90;99.90;;;;;;5124283;28;20221;-79
2022/10/07 10:40:05;;;;;;;9.25;8.95;;;16.00;99.90;;;;;;5128753;27;20209;-79
2022/10/07 10:42:46;;;;;;;9.32;9.02;;;16.00;99.90;;;;;;5129668;27;20209;-79
2022/10/07 10:45:25;;;;;;;9.65;9.35;;;16.10;99.90;;;;;;5129744;27;20246;-79
2022/10/07 10:48:12;;;;;;;9.85;9.55;;;16.20;99.90;;;;;;5125586;27;20225;-80
2022/10/07 10:50:52;;;;;;;9.98;9.68;;;16.30;99.90;;;;;;5128198;27;20214;-80
2022/10/07 10:53:35;;;;;;;9.80;9.50;;;16.30;99.90;;;;;;5121016;27;20236;-80
2022/10/07 10:56:18;;;;;;;9.32;9.02;;;16.50;99.90;;;;;;5132225;27;20292;-80
2022/10/07 10:59:07;;;;;;;10.13;9.82;;;16.60;99.90;;;;;;5128804;27;20217;-81
2022/10/07 11:01:38;;;;;;;10.00;9.70;;;16.80;99.90;;;;;;5119755;27;20206;-81
2022/10/07 11:04:28;;;;;;;9.70;9.40;;;17.10;99.90;;;;;;5126114;27;20273;-80
2022/10/07 11:07:01;;;;;;;9.90;9.60;;;17.40;99.90;;;;;;5128582;27;20221;-80
2022/10/07 11:09:39;;;;;;;9.50;9.20;;;17.50;99.90;;;;;;5122660;27;20232;-82
2022/10/07 11:12:25;;;;;;;9.38;9.07;;;17.60;99.90;;;;;;5135007;27;20239;-83
2022/10/07 11:15:00;;;;;;;9.60;9.30;;;17.70;99.90;;;;;;5126423;28;20320;-81
2022/10/07 11:17:34;;;;;;;9.93;9.63;;;17.80;99.90;;;;;;5126074;28;20231;-83
2022/10/07 11:20:15;;;;;;;9.48;9.18;;;17.80;99.90;;;;;;5121128;28;20263;-83
2022/10/07 11:22:52;;;;;;;9.55;9.25;;;17.80;99.90;;;;;;5116235;28;20312;-82
2022/10/07 11:25:30;;;;;;;9.45;9.15;;;18.10;99.90;;;;;;5116301;28;20239;-84
2022/10/07 11:28:09;;;;;;;9.35;9.05;;;18.60;99.90;;;;;;5105072;28;20237;-84
2022/10/07 11:30:53;;;;;;;9.70;9.40;;;18.90;99.90;;;;;;5100884;28;20260;-85
2022/10/07 11:33:32;;;;;;;9.70;9.40;;;19.30;99.90;;;;;;5102296;28;20229;-85
2022/10/07 11:36:10;;;;;;;9.35;9.05;;;19.60;99.90;;;;;;5102312;28;20233;-85
2022/10/07 11:38:43;;;;;;;9.80;9.50;;;19.50;99.90;;;;;;5113462;28;20228;-83
2022/10/07 11:41:19;;;;;;;9.60;9.30;;;19.50;99.90;;;;;;5117443;28;20225;-84
2022/10/07 11:43:54;;;;;;;9.57;9.27;;;19.40;99.90;;;;;;5117649;28;20212;-81
2022/10/07 11:46:26;;;;;;;9.90;9.60;;;19.30;99.90;;;;;;5118101;28;20579;-82
2022/10/07 11:48:59;;;;;;;9.60;9.30;;;19.30;99.90;;;;;;5100377;28;20229;-82
2022/10/07 11:51:33;;;;;;;9.68;9.38;;;19.30;99.90;;;;;;5106480;28;20220;-82
2022/10/07 11:54:07;;;;;;;9.60;9.30;;;19.50;99.90;;;;;;5108894;28;20209;-80
2022/10/07 11:56:44;;;;;;;9.70;9.40;;;19.60;99.90;;;;;;5102616;28;20247;-81
2022/10/07 11:59:38;;;;;;;9.90;9.60;;;19.80;99.90;;;;;;5113454;27;20236;-81
2022/10/07 12:02:43;;;;;;;9.77;9.48;;;20.00;99.90;;;;;;5120983;28;20240;-82
2022/10/07 12:06:05;;;;;;;9.90;9.60;;;20.30;99.90;;;;;;5117240;28;20224;-82
2022/10/07 12:08:35;;;;;;;9.77;9.48;;;20.50;99.90;;;;;;5080242;28;20256;-83
2022/10/07 12:11:49;;;;;;;10.07;9.77;;;20.80;99.90;;;;;;5081678;28;20341;-81
2022/10/07 12:14:41;;;;;;;10.63;10.32;;;20.90;99.90;;;;;;5106098;28;20320;-81
2022/10/07 12:17:27;;;;;;;10.30;10.00;;;21.20;99.90;;;;;;5103086;28;20224;-79
2022/10/07 12:20:41;;;;;;;10.70;10.40;;;21.70;99.90;;;;;;5115187;28;20243;-80
2022/10/07 12:23:48;;;;;;;10.70;10.40;;;22.20;99.90;;;;;;5104826;28;20236;-80
2022/10/07 12:26:51;;;;;;;10.73;10.43;;;22.80;99.90;;;;;;5120585;28;20217;-80
2022/10/07 12:29:50;;;;;;;10.25;9.95;;;23.30;99.90;;;;;;5116648;27;20240;-81
2022/10/07 12:32:55;;;;;;;10.10;9.80;;;23.30;99.90;;;;;;5109230;28;20229;-82
2022/10/07 12:35:47;;;;;;;10.20;9.90;;;23.50;99.90;;;;;;5111332;27;20253;-81
2022/10/07 12:38:28;;;;;;;10.40;10.10;;;23.50;99.90;;;;;;5107655;27;20233;-83
2022/10/07 12:41:23;;;;;;;9.60;9.30;;;23.50;99.90;;;;;;5096752;28;20216;-82
2022/10/07 12:44:05;;;;;;;9.80;9.50;;;23.40;99.90;;;;;;5097772;28;20307;-83
2022/10/07 12:46:48;;;;;;;9.60;9.30;;;23.30;99.90;;;;;;5094844;28;20230;-79
2022/10/07 12:49:23;;;;;;;8.98;8.77;;;23.20;99.90;;;;;;5104403;28;20238;-80
2022/10/07 12:51:54;;;;;;;9.32;9.02;;;23.10;99.90;;;;;;5124162;27;20236;-80
2022/10/07 12:54:30;;;;;;;9.38;9.07;;;22.80;99.90;;;;;;5130420;27;20292;-81
2022/10/07 12:56:58;;;;;;;9.35;9.05;;;22.60;99.90;;;;;;5108666;28;20240;-80
2022/10/07 12:59:51;;;;;;;9.55;9.25;;;22.50;99.90;;;;;;5132634;27;20240;-81
2022/10/07 13:03:12;;;;;;;9.60;9.30;;;22.30;99.90;;;;;;5125186;27;20232;-82
2022/10/07 13:06:21;;;;;;;9.88;9.57;;;22.20;99.90;;;;;;5132536;28;20232;-82
2022/10/07 13:09:30;;;;;;;10.23;9.93;;;22.20;99.90;;;;;;5124094;27;20241;-82
2022/10/07 13:12:41;;;;;;;10.20;9.90;;;22.40;99.90;;;;;;5117524;28;20256;-81
2022/10/07 13:15:27;;;;;;;10.23;9.93;;;22.50;99.90;;;;;;5103756;28;20321;-82
2022/10/07 13:18:04;;;;;;;10.13;9.82;;;22.40;99.90;;;;;;5103988;28;20225;-82
2022/10/07 13:20:41;;;;;;;10.00;9.70;;;22.60;99.90;;;;;;5101342;28;20274;-81
2022/10/07 13:23:16;;;;;;;10.07;9.77;;;22.90;99.90;;;;;;5101050;28;20297;-80
2022/10/07 13:25:48;;;;;;;10.10;9.80;;;23.30;99.90;;;;;;5102213;28;20226;-81
2022/10/07 13:28:21;;;;;;;10.02;9.73;;;23.40;99.90;;;;;;5103359;28;20233;-82
2022/10/07 13:30:52;;;;;;;10.38;10.07;;;23.40;99.90;;;;;;5103642;28;20260;-82
2022/10/07 13:33:25;;;;;;;10.60;10.30;;;23.50;99.90;;;;;;5103136;28;20312;-83
2022/10/07 13:36:07;;;;;;;10.43;10.13;;;23.70;99.90;;;;;;5103143;28;20236;-82
2022/10/07 13:38:38;;;;;;;10.60;10.30;;;23.90;99.90;;;;;;5103011;28;20233;-83
2022/10/07 13:41:13;;;;;;;10.75;10.45;;;24.10;99.90;;;;;;5105781;28;20321;-83
2022/10/07 13:43:52;;;;;;;10.60;10.30;;;24.40;99.90;;;;;;5117101;28;20221;-84